CPX332 Details

Departure: Austin-Bergstrom International Airport (KAUS)
Arrival: Valley International Airport (KHRL)
Route: PCKIT CRP


Current Weather Information
KAUS 250153Z 16009KT 10SM FEW050 SCT250 27/19 A2996 RMK AO2 SLP133 T02720194
KHRL 250247Z 13016KT 10SM BKN018 OVC028 28/25 A2991 RMK AO2